sensor_id;sensor_type;location;lat;lon;timestamp;P1;durP1;ratioP1;P2;durP2;ratioP2
18290;SDS011;9271;48.590;8.866;2024-01-30T00:01:52;7.93;;;6.27;;
18290;SDS011;9271;48.590;8.866;2024-01-30T00:04:20;9.23;;;6.43;;
18290;SDS011;9271;48.590;8.866;2024-01-30T00:06:46;7.67;;;5.93;;
18290;SDS011;9271;48.590;8.866;2024-01-30T00:09:14;7.70;;;6.27;;
18290;SDS011;9271;48.590;8.866;2024-01-30T00:11:41;10.63;;;6.33;;
18290;SDS011;9271;48.590;8.866;2024-01-30T00:14:07;8.73;;;6.33;;
18290;SDS011;9271;48.590;8.866;2024-01-30T00:16:34;8.37;;;6.17;;
18290;SDS011;9271;48.590;8.866;2024-01-30T00:19:00;7.50;;;6.07;;
18290;SDS011;9271;48.590;8.866;2024-01-30T00:21:29;7.83;;;5.90;;
18290;SDS011;9271;48.590;8.866;2024-01-30T00:23:56;6.90;;;5.80;;
18290;SDS011;9271;48.590;8.866;2024-01-30T00:26:23;7.53;;;5.70;;
18290;SDS011;9271;48.590;8.866;2024-01-30T00:28:49;9.53;;;6.40;;
18290;SDS011;9271;48.590;8.866;2024-01-30T00:31:16;9.60;;;6.07;;
18290;SDS011;9271;48.590;8.866;2024-01-30T00:33:42;7.77;;;5.87;;
18290;SDS011;9271;48.590;8.866;2024-01-30T00:36:09;6.43;;;5.83;;
18290;SDS011;9271;48.590;8.866;2024-01-30T00:38:37;8.50;;;6.07;;
18290;SDS011;9271;48.590;8.866;2024-01-30T00:41:05;7.70;;;6.17;;
18290;SDS011;9271;48.590;8.866;2024-01-30T00:43:34;10.90;;;6.17;;
18290;SDS011;9271;48.590;8.866;2024-01-30T00:46:00;8.33;;;6.13;;
18290;SDS011;9271;48.590;8.866;2024-01-30T00:48:28;7.47;;;6.07;;
18290;SDS011;9271;48.590;8.866;2024-01-30T00:50:54;9.10;;;6.23;;
18290;SDS011;9271;48.590;8.866;2024-01-30T00:53:21;8.73;;;5.93;;
18290;SDS011;9271;48.590;8.866;2024-01-30T00:55:49;7.00;;;5.87;;
18290;SDS011;9271;48.590;8.866;2024-01-30T00:58:16;7.93;;;5.73;;
18290;SDS011;9271;48.590;8.866;2024-01-30T01:00:44;8.20;;;6.23;;
18290;SDS011;9271;48.590;8.866;2024-01-30T01:03:11;6.80;;;6.00;;
18290;SDS011;9271;48.590;8.866;2024-01-30T01:05:39;7.03;;;5.70;;
18290;SDS011;9271;48.590;8.866;2024-01-30T01:08:06;7.33;;;6.20;;
18290;SDS011;9271;48.590;8.866;2024-01-30T01:10:32;6.97;;;5.60;;
18290;SDS011;9271;48.590;8.866;2024-01-30T01:13:00;7.10;;;5.80;;
18290;SDS011;9271;48.590;8.866;2024-01-30T01:15:27;6.60;;;5.37;;
18290;SDS011;9271;48.590;8.866;2024-01-30T01:17:53;8.13;;;6.13;;
18290;SDS011;9271;48.590;8.866;2024-01-30T01:20:20;8.50;;;5.77;;
18290;SDS011;9271;48.590;8.866;2024-01-30T01:22:47;7.03;;;5.87;;
18290;SDS011;9271;48.590;8.866;2024-01-30T01:25:13;7.30;;;5.57;;
18290;SDS011;9271;48.590;8.866;2024-01-30T01:27:40;7.23;;;5.73;;
18290;SDS011;9271;48.590;8.866;2024-01-30T01:30:10;8.30;;;5.60;;
18290;SDS011;9271;48.590;8.866;2024-01-30T01:32:43;7.53;;;5.67;;
18290;SDS011;9271;48.590;8.866;2024-01-30T01:35:15;7.43;;;6.00;;
18290;SDS011;9271;48.590;8.866;2024-01-30T01:37:41;6.93;;;5.67;;
18290;SDS011;9271;48.590;8.866;2024-01-30T01:40:08;7.07;;;5.97;;
18290;SDS011;9271;48.590;8.866;2024-01-30T01:42:35;7.57;;;5.53;;
18290;SDS011;9271;48.590;8.866;2024-01-30T01:45:02;7.30;;;5.87;;
18290;SDS011;9271;48.590;8.866;2024-01-30T01:47:30;7.50;;;5.73;;
18290;SDS011;9271;48.590;8.866;2024-01-30T01:49:57;7.63;;;5.67;;
18290;SDS011;9271;48.590;8.866;2024-01-30T01:52:24;7.30;;;6.10;;
18290;SDS011;9271;48.590;8.866;2024-01-30T01:54:51;6.90;;;6.00;;
18290;SDS011;9271;48.590;8.866;2024-01-30T01:57:18;9.67;;;5.70;;
18290;SDS011;9271;48.590;8.866;2024-01-30T01:59:45;8.73;;;6.30;;
18290;SDS011;9271;48.590;8.866;2024-01-30T02:02:12;8.37;;;6.10;;
18290;SDS011;9271;48.590;8.866;2024-01-30T02:04:42;7.40;;;6.20;;
18290;SDS011;9271;48.590;8.866;2024-01-30T02:07:08;6.83;;;5.47;;
18290;SDS011;9271;48.590;8.866;2024-01-30T02:09:36;7.30;;;6.27;;
18290;SDS011;9271;48.590;8.866;2024-01-30T02:12:03;6.17;;;5.37;;
18290;SDS011;9271;48.590;8.866;2024-01-30T02:14:30;6.67;;;5.60;;
18290;SDS011;9271;48.590;8.866;2024-01-30T02:16:56;7.10;;;6.03;;
18290;SDS011;9271;48.590;8.866;2024-01-30T02:19:23;6.80;;;5.80;;
18290;SDS011;9271;48.590;8.866;2024-01-30T02:21:51;7.47;;;5.83;;
18290;SDS011;9271;48.590;8.866;2024-01-30T02:24:18;7.37;;;5.70;;
18290;SDS011;9271;48.590;8.866;2024-01-30T02:26:45;7.37;;;5.77;;
18290;SDS011;9271;48.590;8.866;2024-01-30T02:29:11;7.17;;;6.00;;
18290;SDS011;9271;48.590;8.866;2024-01-30T02:31:38;8.73;;;5.67;;
18290;SDS011;9271;48.590;8.866;2024-01-30T02:34:05;8.60;;;5.83;;
18290;SDS011;9271;48.590;8.866;2024-01-30T02:36:31;6.60;;;5.50;;
18290;SDS011;9271;48.590;8.866;2024-01-30T02:38:59;8.13;;;6.10;;
18290;SDS011;9271;48.590;8.866;2024-01-30T02:41:26;6.50;;;5.47;;
18290;SDS011;9271;48.590;8.866;2024-01-30T02:43:52;7.27;;;5.80;;
18290;SDS011;9271;48.590;8.866;2024-01-30T02:46:19;7.60;;;5.87;;
18290;SDS011;9271;48.590;8.866;2024-01-30T02:48:46;6.87;;;6.07;;
18290;SDS011;9271;48.590;8.866;2024-01-30T02:51:12;7.57;;;5.93;;
18290;SDS011;9271;48.590;8.866;2024-01-30T02:53:39;7.70;;;5.90;;
18290;SDS011;9271;48.590;8.866;2024-01-30T02:56:07;9.40;;;6.17;;
18290;SDS011;9271;48.590;8.866;2024-01-30T02:58:35;7.80;;;6.17;;
18290;SDS011;9271;48.590;8.866;2024-01-30T03:01:01;7.90;;;6.37;;
18290;SDS011;9271;48.590;8.866;2024-01-30T03:03:28;8.00;;;6.60;;
18290;SDS011;9271;48.590;8.866;2024-01-30T03:05:55;7.10;;;5.87;;
18290;SDS011;9271;48.590;8.866;2024-01-30T03:08:21;8.40;;;6.20;;
18290;SDS011;9271;48.590;8.866;2024-01-30T03:10:48;7.40;;;6.30;;
18290;SDS011;9271;48.590;8.866;2024-01-30T03:13:16;7.77;;;6.20;;
18290;SDS011;9271;48.590;8.866;2024-01-30T03:15:43;9.10;;;6.00;;
18290;SDS011;9271;48.590;8.866;2024-01-30T03:18:10;8.97;;;5.70;;
18290;SDS011;9271;48.590;8.866;2024-01-30T03:20:36;8.93;;;6.80;;
18290;SDS011;9271;48.590;8.866;2024-01-30T03:23:03;7.53;;;6.43;;
18290;SDS011;9271;48.590;8.866;2024-01-30T03:25:30;6.47;;;5.77;;
18290;SDS011;9271;48.590;8.866;2024-01-30T03:27:57;6.33;;;5.50;;
18290;SDS011;9271;48.590;8.866;2024-01-30T03:30:25;7.30;;;5.40;;
18290;SDS011;9271;48.590;8.866;2024-01-30T03:32:51;5.90;;;5.27;;
18290;SDS011;9271;48.590;8.866;2024-01-30T03:35:18;6.40;;;5.57;;
18290;SDS011;9271;48.590;8.866;2024-01-30T03:37:45;6.57;;;5.33;;
18290;SDS011;9271;48.590;8.866;2024-01-30T03:40:12;6.90;;;6.00;;
18290;SDS011;9271;48.590;8.866;2024-01-30T03:42:38;8.17;;;5.70;;
18290;SDS011;9271;48.590;8.866;2024-01-30T03:45:06;6.63;;;5.57;;
18290;SDS011;9271;48.590;8.866;2024-01-30T03:47:34;5.70;;;5.10;;
18290;SDS011;9271;48.590;8.866;2024-01-30T03:50:01;5.93;;;4.97;;
18290;SDS011;9271;48.590;8.866;2024-01-30T03:52:29;7.23;;;5.40;;
18290;SDS011;9271;48.590;8.866;2024-01-30T03:54:56;6.60;;;5.17;;
18290;SDS011;9271;48.590;8.866;2024-01-30T03:57:23;6.13;;;5.17;;
18290;SDS011;9271;48.590;8.866;2024-01-30T03:59:49;5.63;;;4.73;;
18290;SDS011;9271;48.590;8.866;2024-01-30T04:02:16;5.73;;;5.13;;
18290;SDS011;9271;48.590;8.866;2024-01-30T04:04:44;5.20;;;4.70;;
18290;SDS011;9271;48.590;8.866;2024-01-30T04:07:11;7.83;;;5.57;;
18290;SDS011;9271;48.590;8.866;2024-01-30T04:09:38;5.67;;;5.07;;
18290;SDS011;9271;48.590;8.866;2024-01-30T04:12:05;5.43;;;4.93;;
18290;SDS011;9271;48.590;8.866;2024-01-30T04:14:32;6.50;;;5.40;;
18290;SDS011;9271;48.590;8.866;2024-01-30T04:16:58;6.53;;;5.27;;
18290;SDS011;9271;48.590;8.866;2024-01-30T04:19:25;6.40;;;5.50;;
18290;SDS011;9271;48.590;8.866;2024-01-30T04:21:53;7.30;;;4.97;;
18290;SDS011;9271;48.590;8.866;2024-01-30T04:24:19;7.00;;;5.77;;
18290;SDS011;9271;48.590;8.866;2024-01-30T04:26:46;6.80;;;5.13;;
18290;SDS011;9271;48.590;8.866;2024-01-30T04:29:13;6.07;;;5.27;;
18290;SDS011;9271;48.590;8.866;2024-01-30T04:31:39;5.73;;;4.70;;
18290;SDS011;9271;48.590;8.866;2024-01-30T04:34:06;6.80;;;5.13;;
18290;SDS011;9271;48.590;8.866;2024-01-30T04:36:33;7.80;;;6.00;;
18290;SDS011;9271;48.590;8.866;2024-01-30T04:39:00;7.33;;;5.93;;
18290;SDS011;9271;48.590;8.866;2024-01-30T04:41:28;7.77;;;6.20;;
18290;SDS011;9271;48.590;8.866;2024-01-30T04:43:57;6.40;;;5.53;;
18290;SDS011;9271;48.590;8.866;2024-01-30T04:46:23;8.00;;;5.97;;
18290;SDS011;9271;48.590;8.866;2024-01-30T04:48:50;6.83;;;5.50;;
18290;SDS011;9271;48.590;8.866;2024-01-30T04:51:16;8.90;;;6.30;;
18290;SDS011;9271;48.590;8.866;2024-01-30T04:53:43;6.80;;;6.00;;
18290;SDS011;9271;48.590;8.866;2024-01-30T04:56:11;7.20;;;5.60;;
18290;SDS011;9271;48.590;8.866;2024-01-30T04:58:38;7.23;;;5.63;;
18290;SDS011;9271;48.590;8.866;2024-01-30T05:01:04;7.27;;;5.90;;
18290;SDS011;9271;48.590;8.866;2024-01-30T05:03:32;6.30;;;5.70;;
18290;SDS011;9271;48.590;8.866;2024-01-30T05:06:00;7.33;;;5.47;;
18290;SDS011;9271;48.590;8.866;2024-01-30T05:08:26;7.63;;;5.87;;
18290;SDS011;9271;48.590;8.866;2024-01-30T05:10:53;7.70;;;5.73;;
18290;SDS011;9271;48.590;8.866;2024-01-30T05:13:21;6.70;;;6.00;;
18290;SDS011;9271;48.590;8.866;2024-01-30T05:15:47;7.57;;;5.50;;
18290;SDS011;9271;48.590;8.866;2024-01-30T05:18:14;6.63;;;5.73;;
18290;SDS011;9271;48.590;8.866;2024-01-30T05:20:41;9.03;;;6.13;;
18290;SDS011;9271;48.590;8.866;2024-01-30T05:23:07;7.33;;;5.80;;
18290;SDS011;9271;48.590;8.866;2024-01-30T05:25:34;8.40;;;6.10;;
18290;SDS011;9271;48.590;8.866;2024-01-30T05:28:01;9.93;;;7.33;;
18290;SDS011;9271;48.590;8.866;2024-01-30T05:30:29;7.47;;;6.57;;
18290;SDS011;9271;48.590;8.866;2024-01-30T05:32:55;9.30;;;7.20;;
18290;SDS011;9271;48.590;8.866;2024-01-30T05:35:22;8.37;;;7.07;;
18290;SDS011;9271;48.590;8.866;2024-01-30T05:37:48;11.33;;;9.13;;
18290;SDS011;9271;48.590;8.866;2024-01-30T05:40:15;10.37;;;7.67;;
18290;SDS011;9271;48.590;8.866;2024-01-30T05:42:42;8.17;;;6.80;;
18290;SDS011;9271;48.590;8.866;2024-01-30T05:45:09;8.03;;;6.40;;
18290;SDS011;9271;48.590;8.866;2024-01-30T05:47:37;6.07;;;5.47;;
18290;SDS011;9271;48.590;8.866;2024-01-30T05:50:05;7.13;;;5.70;;
18290;SDS011;9271;48.590;8.866;2024-01-30T05:52:33;7.03;;;6.10;;
18290;SDS011;9271;48.590;8.866;2024-01-30T05:54:59;5.80;;;5.20;;
18290;SDS011;9271;48.590;8.866;2024-01-30T05:57:27;6.40;;;5.60;;
18290;SDS011;9271;48.590;8.866;2024-01-30T05:59:53;6.13;;;4.97;;
18290;SDS011;9271;48.590;8.866;2024-01-30T06:02:20;7.53;;;6.30;;
18290;SDS011;9271;48.590;8.866;2024-01-30T06:04:48;7.03;;;5.50;;
18290;SDS011;9271;48.590;8.866;2024-01-30T06:07:15;6.27;;;5.67;;
18290;SDS011;9271;48.590;8.866;2024-01-30T06:09:42;7.97;;;6.70;;
18290;SDS011;9271;48.590;8.866;2024-01-30T06:12:09;6.97;;;5.87;;
18290;SDS011;9271;48.590;8.866;2024-01-30T06:14:36;7.30;;;6.50;;
18290;SDS011;9271;48.590;8.866;2024-01-30T06:17:03;7.07;;;5.80;;
18290;SDS011;9271;48.590;8.866;2024-01-30T06:19:30;6.47;;;5.77;;
18290;SDS011;9271;48.590;8.866;2024-01-30T06:21:58;6.10;;;5.50;;
18290;SDS011;9271;48.590;8.866;2024-01-30T06:24:25;7.73;;;5.70;;
18290;SDS011;9271;48.590;8.866;2024-01-30T06:26:52;5.83;;;5.07;;
18290;SDS011;9271;48.590;8.866;2024-01-30T06:29:19;9.40;;;6.00;;
18290;SDS011;9271;48.590;8.866;2024-01-30T06:31:46;7.17;;;5.83;;
18290;SDS011;9271;48.590;8.866;2024-01-30T06:34:12;7.30;;;5.67;;
18290;SDS011;9271;48.590;8.866;2024-01-30T06:36:39;7.67;;;6.00;;
18290;SDS011;9271;48.590;8.866;2024-01-30T06:39:07;7.73;;;6.10;;
18290;SDS011;9271;48.590;8.866;2024-01-30T06:41:33;7.60;;;6.00;;
18290;SDS011;9271;48.590;8.866;2024-01-30T06:44:01;6.77;;;5.63;;
18290;SDS011;9271;48.590;8.866;2024-01-30T06:46:31;7.93;;;5.80;;
18290;SDS011;9271;48.590;8.866;2024-01-30T06:48:58;7.70;;;6.17;;
18290;SDS011;9271;48.590;8.866;2024-01-30T06:51:25;7.50;;;5.70;;
18290;SDS011;9271;48.590;8.866;2024-01-30T06:53:52;7.00;;;6.30;;
18290;SDS011;9271;48.590;8.866;2024-01-30T06:56:20;9.13;;;6.47;;
18290;SDS011;9271;48.590;8.866;2024-01-30T06:58:46;8.63;;;6.47;;
18290;SDS011;9271;48.590;8.866;2024-01-30T07:01:14;10.17;;;6.63;;
18290;SDS011;9271;48.590;8.866;2024-01-30T07:03:40;8.60;;;7.27;;
18290;SDS011;9271;48.590;8.866;2024-01-30T07:06:08;7.23;;;6.23;;
18290;SDS011;9271;48.590;8.866;2024-01-30T07:08:35;7.67;;;6.30;;
18290;SDS011;9271;48.590;8.866;2024-01-30T07:11:03;7.50;;;5.80;;
18290;SDS011;9271;48.590;8.866;2024-01-30T07:13:32;7.83;;;6.40;;
18290;SDS011;9271;48.590;8.866;2024-01-30T07:15:58;9.27;;;6.77;;
18290;SDS011;9271;48.590;8.866;2024-01-30T07:18:25;7.93;;;6.30;;
18290;SDS011;9271;48.590;8.866;2024-01-30T07:20:52;9.03;;;6.70;;
18290;SDS011;9271;48.590;8.866;2024-01-30T07:23:19;7.80;;;6.27;;
18290;SDS011;9271;48.590;8.866;2024-01-30T07:25:45;9.20;;;6.43;;
18290;SDS011;9271;48.590;8.866;2024-01-30T07:28:13;8.87;;;6.97;;
18290;SDS011;9271;48.590;8.866;2024-01-30T07:30:43;15.70;;;9.17;;
18290;SDS011;9271;48.590;8.866;2024-01-30T07:33:10;9.90;;;7.30;;
18290;SDS011;9271;48.590;8.866;2024-01-30T07:35:36;9.27;;;7.10;;
18290;SDS011;9271;48.590;8.866;2024-01-30T07:38:03;7.97;;;6.47;;
18290;SDS011;9271;48.590;8.866;2024-01-30T07:40:30;8.97;;;7.53;;
18290;SDS011;9271;48.590;8.866;2024-01-30T07:42:58;7.43;;;6.60;;
18290;SDS011;9271;48.590;8.866;2024-01-30T07:45:24;7.87;;;6.80;;
18290;SDS011;9271;48.590;8.866;2024-01-30T07:47:54;7.93;;;6.60;;
18290;SDS011;9271;48.590;8.866;2024-01-30T07:50:20;8.67;;;6.30;;
18290;SDS011;9271;48.590;8.866;2024-01-30T07:52:47;8.27;;;6.97;;
18290;SDS011;9271;48.590;8.866;2024-01-30T07:55:16;8.73;;;6.50;;
18290;SDS011;9271;48.590;8.866;2024-01-30T07:57:44;7.67;;;6.63;;
18290;SDS011;9271;48.590;8.866;2024-01-30T08:00:11;7.80;;;6.83;;
18290;SDS011;9271;48.590;8.866;2024-01-30T08:02:38;7.80;;;7.00;;
18290;SDS011;9271;48.590;8.866;2024-01-30T08:05:07;7.23;;;6.43;;
18290;SDS011;9271;48.590;8.866;2024-01-30T08:07:35;7.47;;;6.27;;
18290;SDS011;9271;48.590;8.866;2024-01-30T08:10:02;6.37;;;5.73;;
18290;SDS011;9271;48.590;8.866;2024-01-30T08:12:29;8.03;;;6.37;;
18290;SDS011;9271;48.590;8.866;2024-01-30T08:14:56;6.63;;;5.67;;
18290;SDS011;9271;48.590;8.866;2024-01-30T08:17:22;7.27;;;6.03;;
18290;SDS011;9271;48.590;8.866;2024-01-30T08:19:49;6.17;;;4.80;;
18290;SDS011;9271;48.590;8.866;2024-01-30T08:22:17;7.70;;;6.60;;
18290;SDS011;9271;48.590;8.866;2024-01-30T08:24:44;6.97;;;5.83;;
18290;SDS011;9271;48.590;8.866;2024-01-30T08:27:10;9.50;;;6.10;;
18290;SDS011;9271;48.590;8.866;2024-01-30T08:29:37;6.47;;;5.43;;
18290;SDS011;9271;48.590;8.866;2024-01-30T08:32:04;5.77;;;5.17;;
18290;SDS011;9271;48.590;8.866;2024-01-30T08:34:31;5.73;;;4.93;;
18290;SDS011;9271;48.590;8.866;2024-01-30T08:36:58;10.13;;;7.27;;
18290;SDS011;9271;48.590;8.866;2024-01-30T08:39:26;6.10;;;5.50;;
18290;SDS011;9271;48.590;8.866;2024-01-30T08:41:53;7.10;;;5.80;;
18290;SDS011;9271;48.590;8.866;2024-01-30T08:44:19;5.63;;;5.07;;
18290;SDS011;9271;48.590;8.866;2024-01-30T08:46:46;5.50;;;4.87;;
18290;SDS011;9271;48.590;8.866;2024-01-30T08:49:15;6.10;;;5.07;;
18290;SDS011;9271;48.590;8.866;2024-01-30T08:51:42;6.03;;;4.97;;
18290;SDS011;9271;48.590;8.866;2024-01-30T08:54:09;6.53;;;5.40;;
18290;SDS011;9271;48.590;8.866;2024-01-30T08:56:37;6.67;;;5.13;;
18290;SDS011;9271;48.590;8.866;2024-01-30T08:59:03;6.33;;;5.63;;
18290;SDS011;9271;48.590;8.866;2024-01-30T09:01:30;7.63;;;5.83;;
18290;SDS011;9271;48.590;8.866;2024-01-30T09:03:56;7.47;;;6.17;;
18290;SDS011;9271;48.590;8.866;2024-01-30T09:06:23;8.57;;;6.17;;
18290;SDS011;9271;48.590;8.866;2024-01-30T09:08:51;9.27;;;6.63;;
18290;SDS011;9271;48.590;8.866;2024-01-30T09:11:18;9.07;;;6.30;;
18290;SDS011;9271;48.590;8.866;2024-01-30T09:13:46;7.03;;;5.97;;
18290;SDS011;9271;48.590;8.866;2024-01-30T09:16:12;6.67;;;5.97;;
18290;SDS011;9271;48.590;8.866;2024-01-30T09:18:40;5.93;;;5.33;;
18290;SDS011;9271;48.590;8.866;2024-01-30T09:21:07;8.27;;;5.93;;
18290;SDS011;9271;48.590;8.866;2024-01-30T09:23:34;9.77;;;5.97;;
18290;SDS011;9271;48.590;8.866;2024-01-30T09:26:00;7.50;;;6.40;;
18290;SDS011;9271;48.590;8.866;2024-01-30T09:28:27;7.50;;;6.53;;
18290;SDS011;9271;48.590;8.866;2024-01-30T09:30:56;8.23;;;6.43;;
18290;SDS011;9271;48.590;8.866;2024-01-30T09:33:22;7.50;;;6.23;;
18290;SDS011;9271;48.590;8.866;2024-01-30T09:35:49;9.70;;;6.33;;
18290;SDS011;9271;48.590;8.866;2024-01-30T09:38:16;8.87;;;6.97;;
18290;SDS011;9271;48.590;8.866;2024-01-30T09:40:42;17.00;;;9.63;;
18290;SDS011;9271;48.590;8.866;2024-01-30T09:43:10;28.47;;;16.07;;
18290;SDS011;9271;48.590;8.866;2024-01-30T09:45:46;38.77;;;22.00;;
18290;SDS011;9271;48.590;8.866;2024-01-30T09:48:15;13.57;;;9.67;;
18290;SDS011;9271;48.590;8.866;2024-01-30T09:50:42;12.13;;;8.37;;
18290;SDS011;9271;48.590;8.866;2024-01-30T09:53:09;10.00;;;7.37;;
18290;SDS011;9271;48.590;8.866;2024-01-30T09:55:37;10.20;;;7.43;;
18290;SDS011;9271;48.590;8.866;2024-01-30T09:58:04;10.63;;;6.93;;
18290;SDS011;9271;48.590;8.866;2024-01-30T10:00:31;9.37;;;6.70;;
18290;SDS011;9271;48.590;8.866;2024-01-30T10:02:58;12.00;;;6.90;;
18290;SDS011;9271;48.590;8.866;2024-01-30T10:05:26;8.37;;;6.40;;
18290;SDS011;9271;48.590;8.866;2024-01-30T10:07:54;6.83;;;5.63;;
18290;SDS011;9271;48.590;8.866;2024-01-30T10:10:21;7.53;;;6.73;;
18290;SDS011;9271;48.590;8.866;2024-01-30T10:12:48;9.90;;;7.37;;
18290;SDS011;9271;48.590;8.866;2024-01-30T10:15:15;9.47;;;7.10;;
18290;SDS011;9271;48.590;8.866;2024-01-30T10:17:44;8.27;;;6.73;;
18290;SDS011;9271;48.590;8.866;2024-01-30T10:20:11;8.93;;;7.13;;
18290;SDS011;9271;48.590;8.866;2024-01-30T10:22:39;11.87;;;7.23;;
18290;SDS011;9271;48.590;8.866;2024-01-30T10:25:07;18.57;;;8.37;;
18290;SDS011;9271;48.590;8.866;2024-01-30T10:27:35;14.13;;;8.13;;
18290;SDS011;9271;48.590;8.866;2024-01-30T10:30:02;10.43;;;7.43;;
18290;SDS011;9271;48.590;8.866;2024-01-30T10:32:29;17.80;;;9.50;;
18290;SDS011;9271;48.590;8.866;2024-01-30T10:34:56;15.63;;;9.63;;
18290;SDS011;9271;48.590;8.866;2024-01-30T10:37:24;12.57;;;9.03;;
18290;SDS011;9271;48.590;8.866;2024-01-30T10:39:53;10.50;;;7.47;;
18290;SDS011;9271;48.590;8.866;2024-01-30T10:42:23;8.67;;;7.17;;
18290;SDS011;9271;48.590;8.866;2024-01-30T10:44:55;7.63;;;6.83;;
18290;SDS011;9271;48.590;8.866;2024-01-30T10:47:26;10.17;;;6.37;;
18290;SDS011;9271;48.590;8.866;2024-01-30T10:49:54;8.30;;;6.27;;
18290;SDS011;9271;48.590;8.866;2024-01-30T10:52:21;6.97;;;6.13;;
18290;SDS011;9271;48.590;8.866;2024-01-30T10:54:50;7.97;;;6.43;;
18290;SDS011;9271;48.590;8.866;2024-01-30T10:57:19;6.67;;;5.83;;
18290;SDS011;9271;48.590;8.866;2024-01-30T10:59:47;8.27;;;6.57;;
18290;SDS011;9271;48.590;8.866;2024-01-30T11:02:15;7.47;;;6.63;;
18290;SDS011;9271;48.590;8.866;2024-01-30T11:04:42;7.67;;;6.27;;
18290;SDS011;9271;48.590;8.866;2024-01-30T11:07:15;8.40;;;6.53;;
18290;SDS011;9271;48.590;8.866;2024-01-30T11:09:48;7.27;;;6.20;;
18290;SDS011;9271;48.590;8.866;2024-01-30T11:12:15;6.83;;;6.23;;
18290;SDS011;9271;48.590;8.866;2024-01-30T11:14:43;7.63;;;6.27;;
18290;SDS011;9271;48.590;8.866;2024-01-30T11:17:10;7.50;;;6.20;;
18290;SDS011;9271;48.590;8.866;2024-01-30T11:19:38;8.33;;;6.57;;
18290;SDS011;9271;48.590;8.866;2024-01-30T11:22:06;8.10;;;7.20;;
18290;SDS011;9271;48.590;8.866;2024-01-30T11:24:36;7.83;;;7.03;;
18290;SDS011;9271;48.590;8.866;2024-01-30T11:27:07;7.43;;;6.30;;
18290;SDS011;9271;48.590;8.866;2024-01-30T11:29:35;7.53;;;6.73;;
18290;SDS011;9271;48.590;8.866;2024-01-30T11:32:04;7.57;;;6.77;;
18290;SDS011;9271;48.590;8.866;2024-01-30T11:34:32;8.83;;;6.87;;
18290;SDS011;9271;48.590;8.866;2024-01-30T11:37:01;7.67;;;6.80;;
18290;SDS011;9271;48.590;8.866;2024-01-30T11:39:30;8.40;;;6.87;;
18290;SDS011;9271;48.590;8.866;2024-01-30T11:41:56;9.03;;;7.20;;
18290;SDS011;9271;48.590;8.866;2024-01-30T11:44:24;8.40;;;6.70;;
18290;SDS011;9271;48.590;8.866;2024-01-30T11:46:52;8.50;;;7.60;;
18290;SDS011;9271;48.590;8.866;2024-01-30T11:49:20;8.27;;;7.00;;
18290;SDS011;9271;48.590;8.866;2024-01-30T11:51:47;8.60;;;6.93;;
18290;SDS011;9271;48.590;8.866;2024-01-30T11:54:14;7.83;;;6.20;;
18290;SDS011;9271;48.590;8.866;2024-01-30T11:56:42;7.37;;;6.03;;
18290;SDS011;9271;48.590;8.866;2024-01-30T11:59:09;8.90;;;6.10;;
18290;SDS011;9271;48.590;8.866;2024-01-30T12:01:36;8.93;;;6.10;;
18290;SDS011;9271;48.590;8.866;2024-01-30T12:04:02;6.40;;;5.80;;
18290;SDS011;9271;48.590;8.866;2024-01-30T12:06:34;6.77;;;5.87;;
18290;SDS011;9271;48.590;8.866;2024-01-30T12:09:02;10.47;;;7.20;;
18290;SDS011;9271;48.590;8.866;2024-01-30T12:11:30;12.40;;;10.10;;
18290;SDS011;9271;48.590;8.866;2024-01-30T12:13:57;15.00;;;11.30;;
18290;SDS011;9271;48.590;8.866;2024-01-30T12:16:24;16.17;;;9.67;;
18290;SDS011;9271;48.590;8.866;2024-01-30T12:18:58;8.60;;;7.33;;
18290;SDS011;9271;48.590;8.866;2024-01-30T12:21:26;9.03;;;7.30;;
18290;SDS011;9271;48.590;8.866;2024-01-30T12:23:54;7.10;;;6.40;;
18290;SDS011;9271;48.590;8.866;2024-01-30T12:26:21;10.43;;;6.10;;
18290;SDS011;9271;48.590;8.866;2024-01-30T12:28:48;7.47;;;6.00;;
18290;SDS011;9271;48.590;8.866;2024-01-30T12:31:15;8.80;;;6.93;;
18290;SDS011;9271;48.590;8.866;2024-01-30T12:33:41;9.50;;;7.40;;
18290;SDS011;9271;48.590;8.866;2024-01-30T12:36:08;9.40;;;6.80;;
18290;SDS011;9271;48.590;8.866;2024-01-30T12:38:35;8.77;;;6.37;;
18290;SDS011;9271;48.590;8.866;2024-01-30T12:41:03;6.37;;;5.77;;
18290;SDS011;9271;48.590;8.866;2024-01-30T12:43:30;8.77;;;5.87;;
18290;SDS011;9271;48.590;8.866;2024-01-30T12:45:57;6.67;;;5.87;;
18290;SDS011;9271;48.590;8.866;2024-01-30T12:48:25;6.00;;;4.97;;
18290;SDS011;9271;48.590;8.866;2024-01-30T12:50:53;6.03;;;5.30;;
18290;SDS011;9271;48.590;8.866;2024-01-30T12:53:20;6.33;;;5.50;;
18290;SDS011;9271;48.590;8.866;2024-01-30T12:55:47;7.07;;;4.93;;
18290;SDS011;9271;48.590;8.866;2024-01-30T12:58:16;6.10;;;4.93;;
18290;SDS011;9271;48.590;8.866;2024-01-30T13:00:41;5.35;;;4.85;;
18290;SDS011;9271;48.590;8.866;2024-01-30T13:03:10;5.82;;;4.60;;
18290;SDS011;9271;48.590;8.866;2024-01-30T13:05:36;4.90;;;4.38;;
18290;SDS011;9271;48.590;8.866;2024-01-30T13:08:03;9.48;;;4.70;;
18290;SDS011;9271;48.590;8.866;2024-01-30T13:10:30;5.72;;;4.72;;
18290;SDS011;9271;48.590;8.866;2024-01-30T13:12:57;6.17;;;4.47;;
18290;SDS011;9271;48.590;8.866;2024-01-30T13:15:25;5.45;;;4.65;;
18290;SDS011;9271;48.590;8.866;2024-01-30T13:17:52;5.13;;;4.63;;
18290;SDS011;9271;48.590;8.866;2024-01-30T13:20:19;4.97;;;4.50;;
18290;SDS011;9271;48.590;8.866;2024-01-30T13:22:47;5.22;;;4.72;;
18290;SDS011;9271;48.590;8.866;2024-01-30T13:25:13;5.50;;;4.97;;
18290;SDS011;9271;48.590;8.866;2024-01-30T13:27:40;5.93;;;5.10;;
18290;SDS011;9271;48.590;8.866;2024-01-30T13:30:07;8.30;;;4.80;;
18290;SDS011;9271;48.590;8.866;2024-01-30T13:32:36;6.37;;;4.73;;
18290;SDS011;9271;48.590;8.866;2024-01-30T13:35:03;5.50;;;4.37;;
18290;SDS011;9271;48.590;8.866;2024-01-30T13:37:30;4.90;;;4.27;;
18290;SDS011;9271;48.590;8.866;2024-01-30T13:39:57;5.50;;;4.40;;
18290;SDS011;9271;48.590;8.866;2024-01-30T13:42:24;5.47;;;4.30;;
18290;SDS011;9271;48.590;8.866;2024-01-30T13:44:50;4.83;;;4.30;;
18290;SDS011;9271;48.590;8.866;2024-01-30T13:47:17;4.60;;;4.10;;
18290;SDS011;9271;48.590;8.866;2024-01-30T13:49:47;5.03;;;3.87;;
18290;SDS011;9271;48.590;8.866;2024-01-30T13:52:14;4.13;;;3.83;;
18290;SDS011;9271;48.590;8.866;2024-01-30T13:54:41;6.60;;;3.80;;
18290;SDS011;9271;48.590;8.866;2024-01-30T13:57:08;4.43;;;3.90;;
18290;SDS011;9271;48.590;8.866;2024-01-30T13:59:34;5.40;;;3.63;;
18290;SDS011;9271;48.590;8.866;2024-01-30T14:02:01;4.53;;;3.30;;
18290;SDS011;9271;48.590;8.866;2024-01-30T14:04:28;4.67;;;3.97;;
18290;SDS011;9271;48.590;8.866;2024-01-30T14:06:56;3.83;;;3.33;;
18290;SDS011;9271;48.590;8.866;2024-01-30T14:09:22;6.53;;;3.80;;
18290;SDS011;9271;48.590;8.866;2024-01-30T14:11:50;3.53;;;3.23;;
18290;SDS011;9271;48.590;8.866;2024-01-30T14:14:16;3.63;;;3.33;;
18290;SDS011;9271;48.590;8.866;2024-01-30T14:16:43;5.33;;;3.33;;
18290;SDS011;9271;48.590;8.866;2024-01-30T14:19:10;3.33;;;3.10;;
18290;SDS011;9271;48.590;8.866;2024-01-30T14:21:36;3.53;;;3.23;;
18290;SDS011;9271;48.590;8.866;2024-01-30T14:24:05;3.13;;;2.87;;
18290;SDS011;9271;48.590;8.866;2024-01-30T14:26:31;4.03;;;3.07;;
18290;SDS011;9271;48.590;8.866;2024-01-30T14:28:58;3.57;;;2.70;;
18290;SDS011;9271;48.590;8.866;2024-01-30T14:31:25;4.40;;;3.00;;
18290;SDS011;9271;48.590;8.866;2024-01-30T14:33:51;3.77;;;3.20;;
18290;SDS011;9271;48.590;8.866;2024-01-30T14:36:20;3.47;;;2.80;;
18290;SDS011;9271;48.590;8.866;2024-01-30T14:38:46;4.33;;;3.03;;
18290;SDS011;9271;48.590;8.866;2024-01-30T14:41:14;5.40;;;2.80;;
18290;SDS011;9271;48.590;8.866;2024-01-30T14:43:41;3.27;;;2.87;;
18290;SDS011;9271;48.590;8.866;2024-01-30T14:46:08;3.50;;;2.87;;
18290;SDS011;9271;48.590;8.866;2024-01-30T14:48:34;6.30;;;2.90;;
18290;SDS011;9271;48.590;8.866;2024-01-30T14:51:01;3.43;;;2.80;;
18290;SDS011;9271;48.590;8.866;2024-01-30T14:53:28;3.20;;;2.77;;
18290;SDS011;9271;48.590;8.866;2024-01-30T14:55:54;2.43;;;2.20;;
18290;SDS011;9271;48.590;8.866;2024-01-30T14:58:22;3.10;;;2.60;;
18290;SDS011;9271;48.590;8.866;2024-01-30T15:00:49;3.00;;;2.60;;